createdAt,value
2022-08-17T00:00:43.901Z,21.68
2022-08-17T00:03:13.573Z,21.68
2022-08-17T00:05:44.169Z,21.69
2022-08-17T00:08:12.410Z,21.65
2022-08-17T00:10:44.103Z,21.63
2022-08-17T00:13:14.230Z,21.61
2022-08-17T00:15:41.968Z,21.62
2022-08-17T00:19:01.662Z,21.58
2022-08-17T00:20:59.545Z,21.55
2022-08-17T00:23:28.645Z,21.55
2022-08-17T00:25:56.375Z,21.52
2022-08-17T00:28:23.946Z,21.43
2022-08-17T00:30:53.551Z,21.49
2022-08-17T00:33:25.950Z,21.45
2022-08-17T00:35:54.185Z,21.35
2022-08-17T00:38:22.855Z,21.27
2022-08-17T00:40:55.968Z,21.28
2022-08-17T00:43:31.775Z,21.37
2022-08-17T00:46:00.283Z,21.30
2022-08-17T00:48:30.889Z,21.35
2022-08-17T00:51:03.241Z,21.29
2022-08-17T00:53:32.796Z,21.29
2022-08-17T00:56:02.045Z,21.29
2022-08-17T00:58:35.800Z,21.25
2022-08-17T01:01:05.742Z,21.25
2022-08-17T01:03:36.265Z,21.21
2022-08-17T01:06:04.664Z,21.20
2022-08-17T01:08:33.311Z,21.22
2022-08-17T01:11:03.095Z,21.21
2022-08-17T01:13:40.411Z,21.19
2022-08-17T01:16:16.862Z,21.23
2022-08-17T01:18:48.325Z,21.15
2022-08-17T01:21:20.029Z,21.09
2022-08-17T01:23:49.079Z,20.85
2022-08-17T01:26:17.009Z,20.69
2022-08-17T01:28:53.792Z,20.75
2022-08-17T01:31:24.968Z,20.69
2022-08-17T01:33:52.737Z,20.55
2022-08-17T01:36:20.950Z,20.48
2022-08-17T01:38:50.536Z,20.58
2022-08-17T01:41:19.575Z,20.59
2022-08-17T01:43:50.515Z,20.64
2022-08-17T01:46:23.300Z,20.43
2022-08-17T01:48:51.527Z,20.37
2022-08-17T01:51:19.958Z,20.37
2022-08-17T01:53:51.957Z,20.44
2022-08-17T01:56:22.865Z,20.33
2022-08-17T01:58:51.021Z,20.24
2022-08-17T02:01:20.696Z,20.13
2022-08-17T02:03:59.153Z,19.96
2022-08-17T02:06:29.015Z,19.92
2022-08-17T02:09:03.271Z,19.92
2022-08-17T02:11:32.829Z,19.99
2022-08-17T02:14:02.747Z,19.91
2022-08-17T02:16:37.063Z,19.96
2022-08-17T02:19:08.258Z,19.97
2022-08-17T02:21:36.793Z,20.08
2022-08-17T02:24:06.509Z,20.06
2022-08-17T02:26:34.386Z,19.97
2022-08-17T02:29:02.337Z,19.93
2022-08-17T02:31:31.094Z,19.99
2022-08-17T02:34:04.072Z,20.07
2022-08-17T02:36:33.980Z,20.06
2022-08-17T02:39:02.389Z,20.07
2022-08-17T02:41:31.701Z,20.10
2022-08-17T02:43:59.756Z,20.05
2022-08-17T02:46:28.386Z,20.09
2022-08-17T02:48:56.397Z,19.92
2022-08-17T02:51:24.346Z,19.92
2022-08-17T02:53:52.621Z,19.96
2022-08-17T02:56:41.864Z,19.91
2022-08-17T02:59:09.818Z,19.77
2022-08-17T03:01:37.847Z,19.57
2022-08-17T03:04:05.964Z,19.74
2022-08-17T03:06:33.968Z,19.57
2022-08-17T03:09:01.873Z,19.51
2022-08-17T03:11:29.867Z,19.43
2022-08-17T03:13:59.259Z,19.35
2022-08-17T03:16:27.235Z,19.42
2022-08-17T03:18:55.368Z,19.31
2022-08-17T03:21:23.308Z,19.44
2022-08-17T03:23:54.514Z,19.32
2022-08-17T03:26:22.685Z,19.38
2022-08-17T03:28:50.395Z,19.44
2022-08-17T03:31:20.637Z,19.47
2022-08-17T03:33:48.408Z,19.65
2022-08-17T03:36:16.119Z,19.78
2022-08-17T03:38:43.858Z,19.89
2022-08-17T03:41:13.720Z,19.84
2022-08-17T03:43:41.370Z,19.87
2022-08-17T03:46:34.778Z,19.91
2022-08-17T03:49:22.739Z,19.96
2022-08-17T03:52:08.105Z,19.89
2022-08-17T03:54:53.434Z,19.87
2022-08-17T03:57:21.292Z,19.83
2022-08-17T03:59:49.430Z,19.80
2022-08-17T04:02:19.251Z,19.84
2022-08-17T04:04:50.701Z,19.78
2022-08-17T04:07:18.861Z,19.75
2022-08-17T04:09:46.439Z,19.71
2022-08-17T04:12:16.229Z,19.73
2022-08-17T04:14:53.619Z,19.83
2022-08-17T04:17:24.312Z,19.81
2022-08-17T04:19:53.930Z,19.81
2022-08-17T04:22:32.137Z,19.83
2022-08-17T04:25:04.700Z,19.81
2022-08-17T04:27:32.337Z,19.78
2022-08-17T04:30:00.136Z,19.77
2022-08-17T04:32:59.307Z,19.74
2022-08-17T04:35:20.863Z,19.71
2022-08-17T04:37:48.570Z,19.77
2022-08-17T04:40:34.161Z,19.76
2022-08-17T04:43:03.351Z,19.81
2022-08-17T04:45:32.125Z,19.87
2022-08-17T04:48:00.699Z,19.81
2022-08-17T04:50:29.720Z,19.81
2022-08-17T04:52:57.657Z,20.02
2022-08-17T04:55:25.504Z,20.09
2022-08-17T04:57:53.200Z,19.88
2022-08-17T05:00:21.098Z,19.80
2022-08-17T05:02:51.170Z,19.81
2022-08-17T05:05:20.089Z,19.78
2022-08-17T05:07:52.350Z,19.64
2022-08-17T05:10:20.147Z,19.64
2022-08-17T05:12:48.854Z,19.59
2022-08-17T05:15:16.705Z,19.52
2022-08-17T05:17:44.873Z,19.49
2022-08-17T05:20:12.702Z,19.45
2022-08-17T05:22:51.101Z,19.51
2022-08-17T05:25:24.962Z,19.51
2022-08-17T05:27:54.244Z,19.65
2022-08-17T05:30:22.172Z,19.69
2022-08-17T05:32:57.146Z,19.80
2022-08-17T05:35:25.423Z,19.69
2022-08-17T05:37:54.589Z,19.80
2022-08-17T05:40:25.864Z,19.90
2022-08-17T05:42:54.185Z,19.93
2022-08-17T05:45:46.052Z,19.97
2022-08-17T05:48:10.322Z,19.98
2022-08-17T05:50:50.427Z,20.01
2022-08-17T05:53:23.985Z,20.08
2022-08-17T05:55:57.863Z,20.25
2022-08-17T05:58:32.927Z,20.26
2022-08-17T06:01:05.068Z,20.28
2022-08-17T06:03:41.478Z,20.21
2022-08-17T06:06:16.942Z,20.37
2022-08-17T06:08:51.727Z,20.56
2022-08-17T06:11:25.022Z,20.64
2022-08-17T06:14:05.335Z,20.53
2022-08-17T06:16:37.220Z,20.51
2022-08-17T06:19:07.527Z,20.45
2022-08-17T06:21:38.799Z,20.42
2022-08-17T06:24:24.762Z,20.35
2022-08-17T06:26:53.556Z,20.29
2022-08-17T06:29:43.996Z,20.19
2022-08-17T06:32:12.874Z,20.11
2022-08-17T06:34:41.327Z,20.03
2022-08-17T06:37:21.202Z,20.22
2022-08-17T06:39:57.276Z,20.23
2022-08-17T06:43:02.780Z,20.08
2022-08-17T06:45:25.018Z,19.93
2022-08-17T06:47:57.552Z,19.96
2022-08-17T06:50:31.925Z,20.02
2022-08-17T06:53:02.460Z,20.07
2022-08-17T06:55:38.074Z,20.09
2022-08-17T06:58:11.984Z,20.21
2022-08-17T07:00:47.043Z,20.22
2022-08-17T07:03:18.914Z,20.20
2022-08-17T07:05:49.602Z,20.10
2022-08-17T07:08:22.107Z,20.19
2022-08-17T07:10:57.748Z,20.21
2022-08-17T07:13:33.994Z,20.31
2022-08-17T07:16:09.317Z,20.39
2022-08-17T07:18:37.572Z,20.38
2022-08-17T07:21:17.487Z,20.31
2022-08-17T07:23:57.234Z,20.33
2022-08-17T07:26:26.230Z,20.38
2022-08-17T07:28:56.137Z,20.43
2022-08-17T07:31:25.311Z,20.53
2022-08-17T07:34:02.910Z,20.58
2022-08-17T07:36:33.739Z,20.47
2022-08-17T07:39:03.045Z,20.44
2022-08-17T07:41:53.439Z,20.42
2022-08-17T07:44:23.907Z,20.23
2022-08-17T07:47:09.904Z,20.29
2022-08-17T07:49:39.567Z,20.35
2022-08-17T07:52:48.062Z,20.30
2022-08-17T07:54:57.216Z,20.54
2022-08-17T07:57:33.403Z,20.68
2022-08-17T08:00:26.636Z,20.77
2022-08-17T08:03:04.457Z,20.83
2022-08-17T08:05:50.528Z,20.90
2022-08-17T08:08:38.374Z,20.98
2022-08-17T08:11:09.937Z,21.00
2022-08-17T08:13:45.029Z,21.05
2022-08-17T08:16:25.924Z,20.90
2022-08-17T08:18:57.505Z,20.90
2022-08-17T08:21:39.260Z,20.93
2022-08-17T08:24:17.817Z,20.99
2022-08-17T08:26:48.840Z,21.01
2022-08-17T08:29:28.249Z,21.07
2022-08-17T08:32:03.467Z,20.97
2022-08-17T08:34:46.324Z,21.16
2022-08-17T08:37:35.711Z,21.23
2022-08-17T08:40:11.014Z,21.07
2022-08-17T08:42:45.141Z,21.09
2022-08-17T08:45:17.365Z,21.05
2022-08-17T08:48:05.072Z,21.06
2022-08-17T08:50:40.331Z,20.93
2022-08-17T08:53:18.804Z,20.94
2022-08-17T08:55:53.546Z,21.03
2022-08-17T08:58:31.632Z,21.15
2022-08-17T09:01:17.634Z,21.32
2022-08-17T09:04:25.121Z,21.27
2022-08-17T09:07:00.596Z,21.50
2022-08-17T09:09:37.040Z,21.67
2022-08-17T09:12:09.687Z,21.85
2022-08-17T09:14:46.694Z,21.95
2022-08-17T09:17:19.164Z,22.16
2022-08-17T09:19:50.189Z,22.33
2022-08-17T09:22:26.587Z,22.59
2022-08-17T09:25:00.883Z,22.71
2022-08-17T09:27:32.309Z,22.86
2022-08-17T09:30:07.842Z,23.07
2022-08-17T09:32:40.567Z,23.27
2022-08-17T09:35:19.977Z,23.40
2022-08-17T09:37:54.626Z,23.59
2022-08-17T09:40:25.975Z,23.59
2022-08-17T09:42:57.443Z,23.70
2022-08-17T09:45:33.144Z,23.70
2022-08-17T09:48:07.556Z,23.71
2022-08-17T09:51:03.266Z,23.73
2022-08-17T09:53:31.759Z,23.60
2022-08-17T09:56:08.044Z,23.60
2022-08-17T09:58:45.658Z,23.69
2022-08-17T10:01:21.013Z,23.69
2022-08-17T10:04:20.519Z,23.96
2022-08-17T10:06:52.833Z,23.65
2022-08-17T10:09:37.761Z,23.60
2022-08-17T10:12:21.326Z,23.75
2022-08-17T10:14:58.283Z,23.89
2022-08-17T10:17:40.674Z,24.00
2022-08-17T10:20:12.934Z,24.13
2022-08-17T10:23:02.072Z,24.17
2022-08-17T10:25:54.689Z,24.16
2022-08-17T10:28:29.415Z,24.31
2022-08-17T10:31:23.210Z,24.25
2022-08-17T10:33:53.819Z,24.29
2022-08-17T10:36:27.445Z,24.28
2022-08-17T10:39:04.989Z,24.32
2022-08-17T10:41:40.435Z,24.41
2022-08-17T10:44:39.682Z,24.39
2022-08-17T10:47:07.946Z,24.44
2022-08-17T10:49:36.982Z,24.60
2022-08-17T10:52:45.136Z,24.69
2022-08-17T10:55:14.895Z,25.05
2022-08-17T10:57:44.746Z,25.40
2022-08-17T11:00:17.000Z,25.60
2022-08-17T11:02:50.822Z,26.04
2022-08-17T11:05:44.075Z,26.19
2022-08-17T11:08:38.428Z,26.39
2022-08-17T11:11:39.696Z,26.45
2022-08-17T11:14:17.113Z,26.54
2022-08-17T11:16:53.967Z,26.75
2022-08-17T11:19:51.554Z,26.61
2022-08-17T11:22:45.317Z,26.45
2022-08-17T11:25:17.213Z,26.37
2022-08-17T11:27:49.105Z,26.34
2022-08-17T11:30:46.873Z,26.63
2022-08-17T11:33:54.390Z,26.77
2022-08-17T11:36:49.626Z,26.58
2022-08-17T11:39:41.924Z,26.43
2022-08-17T11:42:25.442Z,26.33
2022-08-17T11:44:55.110Z,26.36
2022-08-17T11:48:02.473Z,26.69
2022-08-17T11:51:01.563Z,26.82
2022-08-17T11:54:31.106Z,26.69
2022-08-17T11:56:52.793Z,26.77
2022-08-17T12:00:10.413Z,26.90
2022-08-17T12:02:48.282Z,26.90
2022-08-17T12:05:40.064Z,26.95
2022-08-17T12:08:17.771Z,26.85
2022-08-17T12:11:00.538Z,26.79
2022-08-17T12:13:38.543Z,26.79
2022-08-17T12:16:10.059Z,26.99
2022-08-17T12:18:42.127Z,27.01
2022-08-17T12:21:30.147Z,27.03
2022-08-17T12:24:05.329Z,27.10
2022-08-17T12:26:34.673Z,27.28
2022-08-17T12:29:05.566Z,27.48
2022-08-17T12:31:36.816Z,27.66
2022-08-17T12:34:06.347Z,27.94
2022-08-17T12:36:34.624Z,27.91
2022-08-17T12:39:14.481Z,27.82
2022-08-17T12:41:51.292Z,28.00
2022-08-17T12:44:21.407Z,27.91
2022-08-17T12:46:54.062Z,28.16
2022-08-17T12:49:30.202Z,28.19
2022-08-17T12:52:14.297Z,28.38
2022-08-17T12:54:48.021Z,28.43
2022-08-17T12:57:18.651Z,28.30
2022-08-17T12:59:51.260Z,28.39
2022-08-17T13:02:33.059Z,28.41
2022-08-17T13:05:03.116Z,28.33
2022-08-17T13:07:35.626Z,28.70
2022-08-17T13:10:05.490Z,28.84
2022-08-17T13:12:35.800Z,28.91
2022-08-17T13:15:04.580Z,28.97
2022-08-17T13:17:35.947Z,29.00
2022-08-17T13:20:07.260Z,28.74
2022-08-17T13:22:35.101Z,28.90
2022-08-17T13:25:07.090Z,28.98
2022-08-17T13:27:35.160Z,29.19
2022-08-17T13:30:05.925Z,29.10
2022-08-17T13:32:44.157Z,28.99
2022-08-17T13:35:50.328Z,28.99
2022-08-17T13:38:36.588Z,29.29
2022-08-17T13:41:07.429Z,29.22
2022-08-17T13:43:41.033Z,29.10
2022-08-17T13:46:10.928Z,28.98
2022-08-17T13:48:39.040Z,28.97
2022-08-17T13:51:24.789Z,28.85
2022-08-17T13:54:07.634Z,29.27
2022-08-17T13:56:47.166Z,29.35
2022-08-17T13:59:18.228Z,29.43
2022-08-17T14:02:07.449Z,29.66
2022-08-17T14:04:35.931Z,29.86
2022-08-17T14:07:27.769Z,29.89
2022-08-17T14:10:02.863Z,29.98
2022-08-17T14:12:33.381Z,30.04
2022-08-17T14:15:02.027Z,29.98
2022-08-17T14:17:34.989Z,30.09
2022-08-17T14:20:07.444Z,29.96
2022-08-17T14:22:40.634Z,30.05
2022-08-17T14:25:12.065Z,30.02
2022-08-17T14:27:51.970Z,30.28
2022-08-17T14:30:22.791Z,30.07
2022-08-17T14:32:52.165Z,29.95
2022-08-17T14:35:22.427Z,30.14
2022-08-17T14:37:52.334Z,30.01
2022-08-17T14:40:24.579Z,29.78
2022-08-17T14:42:54.174Z,29.97
2022-08-17T14:45:27.019Z,30.08
2022-08-17T14:48:00.648Z,30.31
2022-08-17T14:50:28.867Z,30.20
2022-08-17T14:52:59.139Z,30.19
2022-08-17T14:55:29.835Z,30.03
2022-08-17T14:57:57.918Z,30.23
2022-08-17T15:00:26.949Z,30.12
2022-08-17T15:02:56.684Z,30.10
2022-08-17T15:05:26.406Z,29.86
2022-08-17T15:07:54.587Z,30.03
2022-08-17T15:10:25.866Z,30.12
2022-08-17T15:12:54.004Z,30.12
2022-08-17T15:15:21.956Z,29.93
2022-08-17T15:17:56.247Z,29.86
2022-08-17T15:20:26.344Z,29.94
2022-08-17T15:22:55.095Z,29.41
2022-08-17T15:25:25.412Z,29.49
2022-08-17T15:27:54.069Z,29.26
2022-08-17T15:30:22.524Z,29.16
2022-08-17T15:32:54.987Z,29.20
2022-08-17T15:35:28.748Z,29.20
2022-08-17T15:38:09.816Z,29.15
2022-08-17T15:40:42.650Z,29.08
2022-08-17T15:43:27.332Z,29.02
2022-08-17T15:46:00.159Z,29.00
2022-08-17T15:48:40.798Z,28.88
2022-08-17T15:51:13.950Z,28.79
2022-08-17T15:53:42.491Z,28.70
2022-08-17T15:56:12.760Z,28.63
2022-08-17T15:58:46.587Z,28.61
2022-08-17T16:01:18.733Z,28.55
2022-08-17T16:04:06.753Z,28.59
2022-08-17T16:06:35.845Z,28.70
2022-08-17T16:09:03.814Z,28.76
2022-08-17T16:11:33.044Z,28.69
2022-08-17T16:14:00.971Z,28.48
2022-08-17T16:16:31.155Z,28.74
2022-08-17T16:18:59.197Z,28.70
2022-08-17T16:21:29.505Z,28.66
2022-08-17T16:24:04.501Z,28.67
2022-08-17T16:26:35.205Z,28.79
2022-08-17T16:29:06.704Z,28.78
2022-08-17T16:31:35.957Z,28.84
2022-08-17T16:34:17.114Z,28.87
2022-08-17T16:36:55.242Z,28.80
2022-08-17T16:39:25.526Z,28.75
2022-08-17T16:41:56.376Z,28.87
2022-08-17T16:44:25.874Z,28.93
2022-08-17T16:46:54.028Z,28.70
2022-08-17T16:49:35.556Z,28.81
2022-08-17T16:52:05.957Z,28.73
2022-08-17T16:54:35.496Z,28.66
2022-08-17T16:57:05.614Z,28.62
2022-08-17T16:59:41.961Z,28.67
2022-08-17T17:02:15.668Z,28.57
2022-08-17T17:04:49.405Z,28.45
2022-08-17T17:07:44.793Z,28.51
2022-08-17T17:10:16.770Z,28.56
2022-08-17T17:13:01.429Z,28.46
2022-08-17T17:15:41.399Z,28.32
2022-08-17T17:18:12.954Z,28.39
2022-08-17T17:20:45.901Z,28.32
2022-08-17T17:23:24.649Z,28.13
2022-08-17T17:25:56.805Z,28.09
2022-08-17T17:28:30.438Z,27.99
2022-08-17T17:31:02.322Z,28.01
2022-08-17T17:33:36.137Z,27.91
2022-08-17T17:36:08.463Z,27.82
2022-08-17T17:38:42.010Z,27.78
2022-08-17T17:41:13.015Z,27.73
2022-08-17T17:43:42.420Z,27.74
2022-08-17T17:46:28.399Z,27.60
2022-08-17T17:48:57.104Z,27.61
2022-08-17T17:51:59.697Z,27.46
2022-08-17T17:54:28.056Z,27.55
2022-08-17T17:57:02.775Z,27.39
2022-08-17T17:59:44.110Z,27.39
2022-08-17T18:02:40.796Z,27.35
2022-08-17T18:05:17.174Z,27.11
2022-08-17T18:07:50.067Z,27.16
2022-08-17T18:10:30.289Z,27.01
2022-08-17T18:13:08.656Z,27.01
2022-08-17T18:15:42.016Z,26.83
2022-08-17T18:18:31.031Z,26.80
2022-08-17T18:21:05.802Z,26.72
2022-08-17T18:23:33.762Z,26.64
2022-08-17T18:26:02.798Z,26.54
2022-08-17T18:28:32.127Z,26.48
2022-08-17T18:31:14.068Z,26.39
2022-08-17T18:33:43.545Z,26.31
2022-08-17T18:36:12.051Z,26.24
2022-08-17T18:38:41.906Z,26.25
2022-08-17T18:41:23.284Z,26.08
2022-08-17T18:44:01.253Z,25.99
2022-08-17T18:46:36.766Z,25.95
2022-08-17T18:49:08.450Z,25.85
2022-08-17T18:51:40.467Z,25.74
2022-08-17T18:54:19.546Z,25.77
2022-08-17T18:56:52.827Z,25.61
2022-08-17T18:59:27.799Z,25.56
2022-08-17T19:02:24.228Z,25.53
2022-08-17T19:05:02.932Z,25.55
2022-08-17T19:07:34.061Z,25.46
2022-08-17T19:10:08.492Z,25.33
2022-08-17T19:12:40.495Z,25.28
2022-08-17T19:15:10.328Z,25.31
2022-08-17T19:17:44.888Z,25.19
2022-08-17T19:20:17.594Z,25.07
2022-08-17T19:23:01.428Z,25.07
2022-08-17T19:25:32.871Z,25.07
2022-08-17T19:28:05.164Z,25.03
2022-08-17T19:30:50.359Z,24.97
2022-08-17T19:33:19.836Z,24.93
2022-08-17T19:35:53.163Z,24.90
2022-08-17T19:38:28.342Z,24.83
2022-08-17T19:41:04.568Z,24.79
2022-08-17T19:44:07.800Z,24.75
2022-08-17T19:46:48.789Z,24.69
2022-08-17T19:49:32.964Z,24.73
2022-08-17T19:52:20.340Z,24.67
2022-08-17T19:54:55.515Z,24.57
2022-08-17T19:57:43.561Z,24.56
2022-08-17T20:00:13.371Z,24.47
2022-08-17T20:02:47.431Z,24.31
2022-08-17T20:05:22.841Z,24.32
2022-08-17T20:07:55.240Z,24.32
2022-08-17T20:10:30.471Z,24.26
2022-08-17T20:13:04.397Z,24.26
2022-08-17T20:15:35.692Z,24.10
2022-08-17T20:18:07.116Z,24.06
2022-08-17T20:20:46.791Z,24.12
2022-08-17T20:23:38.730Z,24.13
2022-08-17T20:26:18.495Z,23.78
2022-08-17T20:29:37.638Z,23.76
2022-08-17T20:32:26.230Z,23.66
2022-08-17T20:35:20.254Z,23.50
2022-08-17T20:38:02.563Z,23.63
2022-08-17T20:40:33.704Z,23.70
2022-08-17T20:43:40.098Z,23.69
2022-08-17T20:46:33.010Z,23.57
2022-08-17T20:49:15.047Z,23.50
2022-08-17T20:52:00.684Z,23.37
2022-08-17T20:54:49.747Z,23.37
2022-08-17T20:57:48.435Z,23.31
2022-08-17T21:00:40.839Z,23.10
2022-08-17T21:03:50.657Z,23.09
2022-08-17T21:06:23.233Z,23.24
2022-08-17T21:09:07.143Z,23.17
2022-08-17T21:12:06.152Z,23.10
2022-08-17T21:14:56.339Z,23.03
2022-08-17T21:17:41.782Z,23.07
2022-08-17T21:20:23.538Z,23.02
2022-08-17T21:22:59.380Z,22.97
2022-08-17T21:25:42.966Z,22.82
2022-08-17T21:28:17.293Z,22.91
2022-08-17T21:30:52.052Z,22.84
2022-08-17T21:33:25.286Z,22.76
2022-08-17T21:35:58.538Z,22.90
2022-08-17T21:38:35.362Z,22.87
2022-08-17T21:41:03.089Z,22.85
2022-08-17T21:43:35.433Z,23.00
2022-08-17T21:46:05.117Z,22.95
2022-08-17T21:48:41.561Z,22.90
2022-08-17T21:51:12.127Z,22.85
2022-08-17T21:53:44.464Z,22.97
2022-08-17T21:56:14.243Z,22.81
2022-08-17T21:58:48.609Z,22.83
2022-08-17T22:01:27.008Z,22.84
2022-08-17T22:03:58.454Z,22.75
2022-08-17T22:06:29.894Z,22.89
2022-08-17T22:09:05.343Z,22.71
2022-08-17T22:11:34.355Z,22.71
2022-08-17T22:14:05.844Z,22.71
2022-08-17T22:16:34.053Z,22.73
2022-08-17T22:19:01.887Z,22.61
2022-08-17T22:21:29.772Z,22.66
2022-08-17T22:24:06.159Z,22.65
2022-08-17T22:27:03.534Z,22.64
2022-08-17T22:29:54.344Z,22.63
2022-08-17T22:32:38.832Z,22.50
2022-08-17T22:35:28.719Z,22.59
2022-08-17T22:37:56.709Z,22.42
2022-08-17T22:40:30.649Z,22.35
2022-08-17T22:42:59.635Z,22.43
2022-08-17T22:45:29.933Z,22.41
2022-08-17T22:47:58.685Z,22.33
2022-08-17T22:50:29.039Z,22.34
2022-08-17T22:53:17.211Z,22.33
2022-08-17T22:56:10.270Z,22.20
2022-08-17T22:59:01.938Z,22.27
2022-08-17T23:01:33.323Z,22.26
2022-08-17T23:04:04.015Z,22.27
2022-08-17T23:06:33.914Z,22.27
2022-08-17T23:09:03.816Z,22.24
2022-08-17T23:11:36.774Z,22.26
2022-08-17T23:14:19.229Z,22.22
2022-08-17T23:16:50.263Z,22.10
2022-08-17T23:19:20.635Z,22.17
2022-08-17T23:21:49.131Z,22.14
2022-08-17T23:24:20.869Z,22.12
2022-08-17T23:26:48.634Z,22.13
2022-08-17T23:29:16.542Z,22.10
2022-08-17T23:31:44.240Z,22.09
2022-08-17T23:34:14.890Z,22.18
2022-08-17T23:36:45.310Z,22.21
2022-08-17T23:39:13.311Z,22.08
2022-08-17T23:41:41.945Z,22.19
2022-08-17T23:44:09.658Z,22.11
2022-08-17T23:46:37.296Z,22.05
2022-08-17T23:49:06.581Z,22.05
2022-08-17T23:51:38.762Z,22.09
2022-08-17T23:54:12.572Z,22.06
2022-08-17T23:56:45.463Z,21.99
2022-08-17T23:59:13.493Z,22.05
